Time;durP1;ratioP1;P1;durP2;ratioP2;P2;SDS_P1;SDS_P2;PMS_P1;PMS_P2;Temp;Humidity;BMP_temperature;BMP_pressure;BME280_temperature;BME280_humidity;BME280_pressure;Samples;Min_cycle;Max_cycle;Signal;HPM_P1;HPM_P2
2022/06/26 00:00:05;;;;;;;15.23;5.18;;;;;;;17.89;100.00;94945.19;5039274;28;20056;-71
2022/06/26 00:02:34;;;;;;;7.90;4.43;;;;;;;17.80;100.00;94941.53;5055082;28;20133;-71
2022/06/26 00:05:02;;;;;;;8.98;5.15;;;;;;;17.70;100.00;94943.19;5062032;28;20052;-70
2022/06/26 00:07:29;;;;;;;8.45;4.93;;;;;;;17.75;100.00;94929.97;5035852;28;20044;-71
2022/06/26 00:09:56;;;;;;;7.47;4.30;;;;;;;17.78;100.00;94934.69;5061617;28;20093;-70
2022/06/26 00:12:23;;;;;;;14.82;4.78;;;;;;;17.83;100.00;94933.09;5061645;28;20052;-70
2022/06/26 00:14:51;;;;;;;10.10;4.30;;;;;;;17.87;100.00;94942.06;5065333;28;20045;-71
2022/06/26 00:17:18;;;;;;;10.13;4.38;;;;;;;17.86;100.00;94940.47;5058770;28;20093;-71
2022/06/26 00:19:45;;;;;;;7.35;4.38;;;;;;;17.88;100.00;94936.50;5065630;28;20048;-71
2022/06/26 00:22:12;;;;;;;7.80;4.10;;;;;;;17.77;100.00;94921.78;5069995;28;20058;-71
2022/06/26 00:24:41;;;;;;;7.00;4.68;;;;;;;17.83;100.00;94931.25;5066303;28;20049;-71
2022/06/26 00:27:08;;;;;;;14.15;5.03;;;;;;;17.82;100.00;94928.88;5048055;28;20099;-71
2022/06/26 00:29:35;;;;;;;8.02;4.00;;;;;;;17.84;100.00;94947.81;5052314;28;20139;-71
2022/06/26 00:32:04;;;;;;;9.98;5.38;;;;;;;17.84;100.00;94958.38;5065223;28;20929;-71
2022/06/26 00:34:32;;;;;;;8.82;3.63;;;;;;;17.80;100.00;94952.06;5043502;28;20045;-71
2022/06/26 00:36:58;;;;;;;14.70;4.85;;;;;;;17.84;100.00;94958.38;5051186;28;20159;-71
2022/06/26 00:39:25;;;;;;;7.88;3.67;;;;;;;17.81;100.00;94959.72;5064449;28;20040;-71
2022/06/26 00:41:53;;;;;;;8.18;4.55;;;;;;;17.80;100.00;94954.72;5068574;28;20066;-71
2022/06/26 00:44:22;;;;;;;11.23;4.55;;;;;;;17.86;100.00;94956.28;5066623;28;20069;-71
2022/06/26 00:46:50;;;;;;;11.48;4.18;;;;;;;17.85;100.00;94955.50;5042747;28;20048;-72
2022/06/26 00:49:18;;;;;;;6.78;3.97;;;;;;;17.96;100.00;94953.56;5062642;28;20558;-71
2022/06/26 00:51:47;;;;;;;11.75;4.10;;;;;;;17.99;100.00;94949.59;5050542;28;20048;-71
2022/06/26 00:54:15;;;;;;;11.07;4.78;;;;;;;18.03;100.00;94961.97;5051623;28;20032;-71
2022/06/26 00:56:42;;;;;;;8.35;5.13;;;;;;;18.02;100.00;94954.31;5034526;28;20114;-71
2022/06/26 00:59:10;;;;;;;6.60;4.25;;;;;;;18.01;100.00;94953.53;5053441;28;20036;-71
2022/06/26 01:01:37;;;;;;;8.45;3.65;;;;;;;18.01;100.00;94953.53;5062945;28;20048;-71
2022/06/26 01:04:04;;;;;;;10.13;4.50;;;;;;;18.02;100.00;94944.56;5066558;28;20055;-71
2022/06/26 01:06:32;;;;;;;8.13;4.18;;;;;;;18.03;100.00;94946.16;5044870;28;20144;-71
2022/06/26 01:08:59;;;;;;;7.88;4.32;;;;;;;17.91;100.00;94927.25;5052965;28;20701;-71
2022/06/26 01:11:28;;;;;;;13.40;3.85;;;;;;;18.04;100.00;94945.09;5032005;28;20137;-71
2022/06/26 01:13:56;;;;;;;8.60;4.75;;;;;;;18.04;100.00;94946.94;5049337;28;20040;-71
2022/06/26 01:16:24;;;;;;;13.95;4.53;;;;;;;18.04;100.00;94947.75;5061301;28;20137;-71
2022/06/26 01:18:54;;;;;;;8.85;4.32;;;;;;;18.06;100.00;94945.59;5048819;28;20054;-71
2022/06/26 01:21:22;;;;;;;10.13;3.88;;;;;;;18.03;100.00;94946.16;5066895;28;20036;-70
2022/06/26 01:23:50;;;;;;;7.18;3.70;;;;;;;18.10;100.00;94954.53;5064080;28;20139;-70
2022/06/26 01:26:18;;;;;;;8.48;4.05;;;;;;;18.13;100.00;94951.34;5025850;28;20040;-70
2022/06/26 01:28:46;;;;;;;8.50;3.80;;;;;;;18.09;100.00;94947.66;5046772;28;20042;-71
2022/06/26 01:31:13;;;;;;;12.52;3.80;;;;;;;18.09;100.00;94955.56;5046467;28;20048;-70
2022/06/26 01:33:40;;;;;;;12.20;3.58;;;;;;;18.03;100.00;94946.16;5061185;28;20043;-71
2022/06/26 01:36:07;;;;;;;8.55;4.30;;;;;;;18.03;100.00;94956.69;5046201;28;20127;-70
2022/06/26 01:38:35;;;;;;;9.35;4.07;;;;;;;18.02;100.00;94960.38;5042414;28;20044;-71
2022/06/26 01:41:02;;;;;;;11.30;5.30;;;;;;;18.07;100.00;94968.25;5040567;28;20673;-70
2022/06/26 01:43:33;;;;;;;5.90;4.18;;;;;;;18.08;100.00;94969.84;5041567;28;20043;-71
2022/06/26 01:46:01;;;;;;;6.22;3.85;;;;;;;18.07;100.00;94957.72;5042599;28;20045;-71
2022/06/26 01:48:35;;;;;;;8.02;4.72;;;;;;;18.08;100.00;94959.28;5036773;28;20132;-70
2022/06/26 01:51:04;;;;;;;6.05;4.10;;;;;;;18.06;100.00;94961.41;5056137;28;20048;-70
2022/06/26 01:53:35;;;;;;;8.05;3.90;;;;;;;18.03;100.00;94966.44;5056572;28;20044;-70
2022/06/26 01:56:03;;;;;;;11.43;5.88;;;;;;;18.06;100.00;94971.97;5074054;28;20584;-70
2022/06/26 01:58:34;;;;;;;28.83;19.55;;;;;;;18.04;100.00;94963.56;5041551;28;21031;-70
2022/06/26 02:01:05;;;;;;;63.60;40.33;;;;;;;18.04;100.00;94968.81;5042680;28;20099;-71
2022/06/26 02:03:32;;;;;;;80.20;52.00;;;;;;;18.04;100.00;94968.81;5039733;28;20076;-69
2022/06/26 02:06:00;;;;;;;78.05;49.10;;;;;;;18.01;100.00;94979.91;5036509;28;20044;-70
2022/06/26 02:08:29;;;;;;;87.25;51.63;;;;;;;17.96;100.00;94979.94;5062364;28;20043;-70
2022/06/26 02:13:44;;;;;;;62.83;39.88;;;;;;;17.93;100.00;94977.84;5056071;28;20674;-70
2022/06/26 02:16:18;;;;;;;55.72;30.08;;;;;;;17.96;100.00;94978.06;5042355;28;20105;-70
2022/06/26 02:18:47;;;;;;;46.53;29.05;;;;;;;17.93;100.00;94983.09;5053914;28;20689;-70
2022/06/26 02:21:17;;;;;;;40.72;25.33;;;;;;;17.93;100.00;94985.75;5056366;28;20028;-71
2022/06/26 02:23:47;;;;;;;44.45;27.17;;;;;;;17.94;100.00;94982.84;5048839;28;20520;-70
2022/06/26 02:26:16;;;;;;;59.97;32.47;;;;;;;17.98;100.00;94980.44;5048817;28;21533;-70
2022/06/26 02:28:45;;;;;;;48.83;26.58;;;;;;;18.01;100.00;94979.13;5060919;28;20063;-70
2022/06/26 02:31:12;;;;;;;43.10;27.42;;;;;;;18.00;100.00;94973.03;5043437;28;20037;-70
2022/06/26 02:33:39;;;;;;;54.50;28.00;;;;;;;18.03;100.00;94975.13;5041471;28;20059;-70
2022/06/26 02:36:07;;;;;;;61.47;29.75;;;;;;;17.99;100.00;94971.47;5063285;28;20044;-69
2022/06/26 02:38:38;;;;;;;50.92;31.75;;;;;;;18.01;100.00;94974.63;5048059;28;20064;-70
2022/06/26 02:41:05;;;;;;;50.28;29.83;;;;;;;18.01;100.00;94979.91;5037895;28;20862;-70
2022/06/26 02:43:33;;;;;;;51.55;29.58;;;;;;;18.07;100.00;94984.06;5042972;28;20204;-69
2022/06/26 02:46:03;;;;;;;50.75;28.42;;;;;;;18.10;100.00;94993.28;5063786;28;20665;-70
2022/06/26 02:48:30;;;;;;;46.55;28.42;;;;;;;18.11;100.00;94985.09;5030542;28;20753;-70
2022/06/26 02:50:57;;;;;;;47.50;27.83;;;;;;;18.06;100.00;94977.22;5035513;28;20868;-70
2022/06/26 02:53:24;;;;;;;51.63;27.77;;;;;;;18.13;100.00;94982.19;5039952;28;20312;-70
2022/06/26 02:55:51;;;;;;;41.00;23.50;;;;;;;18.10;100.00;94978.25;5022176;28;20174;-70
2022/06/26 02:58:20;;;;;;;42.80;23.25;;;;;;;18.09;100.00;94989.06;5043974;28;20770;-71
2022/06/26 03:00:58;;;;;;;41.28;23.27;;;;;;;18.06;100.00;94998.31;5047542;28;20114;-70
2022/06/26 03:03:25;;;;;;;36.13;21.65;;;;;;;18.08;100.00;95006.72;5060752;28;20127;-70
2022/06/26 03:05:53;;;;;;;41.60;21.02;;;;;;;18.07;100.00;95005.16;5041497;28;20036;-70
2022/06/26 03:08:23;;;;;;;32.65;17.95;;;;;;;18.06;100.00;95005.41;5040585;28;20694;-71
2022/06/26 03:10:51;;;;;;;26.60;15.38;;;;;;;18.00;100.00;94994.13;5069453;28;20040;-71
2022/06/26 03:13:18;;;;;;;22.30;14.10;;;;;;;18.06;100.00;95006.22;5049101;28;20044;-70
2022/06/26 03:15:45;;;;;;;23.20;13.95;;;;;;;18.08;100.00;94996.19;5045116;28;20060;-70
2022/06/26 03:18:15;;;;;;;24.00;12.20;;;;;;;18.10;100.00;94999.34;5047757;28;20166;-70
2022/06/26 03:20:43;;;;;;;23.98;11.73;;;;;;;18.00;100.00;94986.22;5026110;28;20705;-70
2022/06/26 03:23:11;;;;;;;17.52;10.70;;;;;;;18.08;100.00;95001.47;5044403;28;20043;-70
2022/06/26 03:25:38;;;;;;;17.60;10.73;;;;;;;18.05;100.00;95007.28;5044787;28;20822;-70
2022/06/26 03:28:05;;;;;;;16.13;9.35;;;;;;;18.02;100.00;95002.53;5064515;28;20036;-71
2022/06/26 03:30:39;;;;;;;15.63;8.30;;;;;;;17.96;100.00;94982.56;5047666;28;20043;-71
2022/06/26 03:33:06;;;;;;;14.18;7.18;;;;;;;18.09;100.00;95005.66;5067096;28;20048;-70
2022/06/26 03:35:34;;;;;;;15.43;7.93;;;;;;;18.01;100.00;94990.44;5065155;28;20037;-71
2022/06/26 03:38:02;;;;;;;13.57;7.75;;;;;;;18.06;100.00;95008.84;5050926;28;20040;-70
2022/06/26 03:40:30;;;;;;;12.45;7.32;;;;;;;18.08;100.00;95006.72;5051730;28;20040;-71
2022/06/26 03:42:58;;;;;;;12.63;7.13;;;;;;;18.02;100.00;94991.22;5034905;28;20045;-71
2022/06/26 03:45:26;;;;;;;15.23;8.85;;;;;;;18.18;100.00;95010.34;5031348;28;20043;-70
2022/06/26 03:47:53;;;;;;;10.23;6.78;;;;;;;18.23;100.00;95010.31;5043931;28;20036;-70
2022/06/26 03:50:20;;;;;;;10.57;7.20;;;;;;;18.26;100.00;95007.94;5048810;28;20044;-71
2022/06/26 03:52:48;;;;;;;16.50;7.57;;;;;;;18.29;100.00;95001.31;5041487;28;20111;-71
2022/06/26 03:55:15;;;;;;;10.57;5.78;;;;;;;18.32;100.00;95003.41;5048503;28;20040;-71
2022/06/26 03:57:42;;;;;;;12.38;6.45;;;;;;;18.32;100.00;95006.03;5042071;28;20033;-70
2022/06/26 04:00:09;;;;;;;12.82;7.13;;;;;;;18.31;100.00;95009.72;5043115;28;20737;-71
2022/06/26 04:02:43;;;;;;;12.82;6.60;;;;;;;18.28;100.00;95000.53;5047704;28;20645;-71
2022/06/26 04:05:14;;;;;;;12.55;6.45;;;;;;;18.23;100.00;95007.69;5049665;28;20064;-71
2022/06/26 04:07:41;;;;;;;13.43;6.65;;;;;;;18.22;100.00;95004.28;5061254;28;20077;-71
2022/06/26 04:10:31;;;;;;;14.30;6.85;;;;;;;18.21;100.00;95012.44;5068418;28;20047;-71
2022/06/26 04:13:00;;;;;;;11.38;6.30;;;;;;;18.20;100.00;95008.22;5033228;28;20032;-70
2022/06/26 04:15:34;;;;;;;19.23;7.07;;;;;;;18.28;100.00;95015.56;5050430;28;20090;-71
2022/06/26 04:18:02;;;;;;;18.17;7.05;;;;;;;18.33;100.00;95013.69;5047708;28;20658;-70
2022/06/26 04:20:30;;;;;;;15.63;6.55;;;;;;;18.37;100.00;95019.19;5048953;28;20043;-71
2022/06/26 04:23:10;;;;;;;17.33;6.78;;;;;;;18.39;100.00;95022.34;5047307;28;20042;-70
2022/06/26 04:25:40;;;;;;;19.70;6.82;;;;;;;18.45;100.00;95029.13;5033798;28;20044;-71
2022/06/26 04:28:10;;;;;;;13.02;7.18;;;;;;;18.37;100.00;95027.09;5061431;28;20056;-71
2022/06/26 04:30:39;;;;;;;14.80;7.07;;;;;;;18.39;100.00;95037.38;5044686;28;20047;-71
2022/06/26 04:33:07;;;;;;;18.23;7.75;;;;;;;18.20;100.00;95034.59;5046490;28;20525;-71
2022/06/26 04:35:35;;;;;;;15.38;8.00;;;;;;;18.17;100.00;95035.13;5034278;28;20193;-72
2022/06/26 04:38:03;;;;;;;13.50;7.85;;;;;;;18.21;100.00;95030.91;5055149;28;20082;-72
2022/06/26 04:40:30;;;;;;;12.95;7.88;;;;;;;18.28;100.00;95031.38;5043325;28;20127;-71
2022/06/26 04:42:58;;;;;;;9.88;7.07;;;;;;;18.33;100.00;95039.25;5051127;28;20044;-71
2022/06/26 04:45:25;;;;;;;13.73;7.28;;;;;;;18.44;100.00;95035.50;5045740;28;20040;-71
2022/06/26 04:47:55;;;;;;;13.77;6.95;;;;;;;18.47;100.00;95032.28;5050146;28;20219;-71
2022/06/26 04:50:22;;;;;;;16.83;7.40;;;;;;;18.58;100.00;95040.13;5043325;28;20425;-72
2022/06/26 04:52:52;;;;;;;11.75;7.38;;;;;;;18.56;100.00;95026.44;5049824;28;20048;-72
2022/06/26 04:55:20;;;;;;;13.63;6.80;;;;;;;18.59;100.00;95028.53;5049009;28;20574;-71
2022/06/26 04:57:49;;;;;;;12.75;6.70;;;;;;;18.64;100.00;95033.75;5049994;28;20121;-72
2022/06/26 05:00:16;;;;;;;13.10;7.00;;;;;;;18.73;100.00;95032.09;5047257;28;20036;-71
2022/06/26 05:02:52;;;;;;;12.55;7.40;;;;;;;18.82;100.00;95035.72;5043740;28;20556;-72
2022/06/26 05:05:39;;;;;;;16.08;8.82;;;;;;;18.80;100.00;95037.84;5032240;28;20456;-71
2022/06/26 05:08:29;;;;;;;11.80;7.53;;;;;;;18.90;100.00;95043.03;5051527;28;20045;-71
2022/06/26 05:10:56;;;;;;;9.82;6.70;;;;;;;18.88;100.00;95034.63;5059680;28;20043;-71
2022/06/26 05:13:23;;;;;;;12.60;7.10;;;;;;;18.79;100.00;95043.38;5044117;28;20044;-71
2022/06/26 05:16:11;;;;;;;11.13;7.72;;;;;;;18.68;100.00;95034.78;5032433;28;20092;-71
2022/06/26 05:18:38;;;;;;;17.75;7.55;;;;;;;18.62;100.00;95051.69;5040984;28;20040;-71
2022/06/26 05:21:05;;;;;;;14.25;8.13;;;;;;;18.63;100.00;95048.78;5051370;28;20145;-71
2022/06/26 05:23:37;;;;;;;14.10;9.85;;;;;;;18.46;100.00;95057.09;5046853;28;20097;-71
2022/06/26 05:26:10;;;;;;;17.77;9.60;;;;;;;18.29;100.00;95043.50;5043257;28;20476;-70
2022/06/26 05:28:37;;;;;;;19.85;10.82;;;;;;;18.44;100.00;95061.03;5040811;28;20113;-70
2022/06/26 05:31:05;;;;;;;17.02;9.73;;;;;;;18.60;100.00;95064.38;5062835;28;20073;-71
2022/06/26 05:33:36;;;;;;;20.25;8.95;;;;;;;18.59;100.00;95068.09;5044756;28;20044;-71
2022/06/26 05:36:03;;;;;;;12.25;7.93;;;;;;;18.54;100.00;95072.31;5048261;28;20640;-71
2022/06/26 05:38:31;;;;;;;12.70;7.57;;;;;;;18.64;100.00;95071.47;5043466;28;20036;-71
2022/06/26 05:40:58;;;;;;;17.60;8.38;;;;;;;18.74;100.00;95081.13;5052539;28;20052;-71
2022/06/26 05:43:26;;;;;;;15.68;7.45;;;;;;;18.87;100.00;95080.56;5062596;28;20045;-72
2022/06/26 05:45:53;;;;;;;13.90;8.63;;;;;;;18.95;100.00;95086.31;5047475;28;20041;-70
2022/06/26 05:48:26;;;;;;;13.38;8.85;;;;;;;19.18;100.00;95085.56;5059403;28;20110;-71
2022/06/26 05:51:11;;;;;;;13.15;7.70;;;;;;;19.50;100.00;95086.84;5052652;28;20194;-71
2022/06/26 05:53:49;;;;;;;18.23;8.68;;;;;;;19.84;100.00;95096.50;5049333;28;20044;-71
2022/06/26 05:56:28;;;;;;;13.13;7.40;;;;;;;19.50;100.00;95094.75;5045824;28;20044;-71
2022/06/26 05:59:12;;;;;;;9.82;6.85;;;;;;;19.65;100.00;95094.56;5047393;28;21357;-71
2022/06/26 06:01:58;;;;;;;12.60;5.90;;;;;;;19.57;100.00;95097.84;5050553;28;20129;-70
2022/06/26 06:04:26;;;;;;;17.08;6.10;;;;;;;19.68;100.00;95109.88;5043939;28;20629;-71
2022/06/26 06:06:57;;;;;;;11.80;6.18;;;;;;;19.59;100.00;95101.00;5051584;28;20048;-70
2022/06/26 06:09:24;;;;;;;14.60;6.95;;;;;;;19.78;100.00;95097.63;5043810;28;20071;-71
2022/06/26 06:11:53;;;;;;;12.80;6.13;;;;;;;19.88;100.00;95102.81;5029243;28;20044;-71
2022/06/26 06:14:20;;;;;;;9.73;5.75;;;;;;;19.73;100.00;95102.94;5050485;28;20036;-71
2022/06/26 06:16:47;;;;;;;11.77;6.60;;;;;;;19.93;100.00;95102.72;5045507;28;20160;-71
2022/06/26 06:19:14;;;;;;;14.00;6.28;;;;;;;19.89;100.00;95109.66;5071692;28;20037;-70
2022/06/26 06:21:44;;;;;;;9.50;5.43;;;;;;;19.93;100.00;95099.31;5047568;28;20040;-71
2022/06/26 06:24:11;;;;;;;9.35;5.57;;;;;;;20.08;100.00;95106.25;5037520;28;20036;-71
2022/06/26 06:26:38;;;;;;;15.25;6.07;;;;;;;20.20;100.00;95103.97;5053332;28;20053;-71
2022/06/26 06:29:17;;;;;;;6.72;5.95;;;;;;;20.41;100.00;95107.91;5056533;28;20728;-71
2022/06/26 06:31:45;;;;;;;14.07;6.80;;;;;;;20.69;100.00;95108.09;5050586;28;20657;-71
2022/06/26 06:34:14;;;;;;;11.63;6.32;;;;;;;21.04;100.00;95121.84;5037682;28;20532;-71
2022/06/26 06:36:41;;;;;;;15.10;6.47;;;;;;;21.12;100.00;95123.03;5032436;28;20048;-70
2022/06/26 06:39:09;;;;;;;12.18;6.75;;;;;;;21.24;100.00;95122.56;5040960;28;20044;-71
2022/06/26 06:41:36;;;;;;;11.77;6.53;;;;;;;21.18;100.00;95117.38;5033668;28;20067;-71
2022/06/26 06:44:06;;;;;;;8.43;6.63;;;;;;;20.96;100.00;95114.56;5036460;28;20083;-71
2022/06/26 06:46:56;;;;;;;10.35;5.82;;;;;;;21.03;100.00;95114.19;5055054;28;20056;-71
2022/06/26 06:49:28;;;;;;;11.80;6.45;;;;;;;20.85;100.00;95118.44;5042350;28;20758;-70
2022/06/26 06:51:58;;;;;;;11.07;6.28;;;;;;;20.72;100.00;95110.16;5037687;28;20072;-71
2022/06/26 06:54:26;;;;;;;11.18;6.18;;;;;;;20.37;100.00;95099.00;5052938;28;20041;-71
2022/06/26 06:56:53;;;;;;;10.05;5.63;;;;;;;20.64;100.00;95102.09;5061072;28;20067;-71
2022/06/26 06:59:20;;;;;;;9.27;5.65;;;;;;;20.68;100.00;95098.56;5058645;28;20033;-71
2022/06/26 07:01:46;;;;;;;12.93;6.38;;;;;;;20.55;100.00;95099.28;5041683;28;20044;-70
2022/06/26 07:04:14;;;;;;;9.57;5.50;;;;;;;20.72;100.00;95110.16;5037097;28;20044;-70
2022/06/26 07:06:42;;;;;;;9.38;5.72;;;;;;;20.86;100.00;95109.44;5042849;28;20156;-70
2022/06/26 07:09:09;;;;;;;16.65;6.00;;;;;;;21.04;100.00;95111.25;5054317;28;20037;-71
2022/06/26 07:11:36;;;;;;;15.80;6.38;;;;;;;21.06;100.00;95119.69;5043542;28;21309;-70
2022/06/26 07:14:03;;;;;;;9.15;4.95;;;;;;;21.12;100.00;95121.19;5052888;28;20031;-71
2022/06/26 07:16:30;;;;;;;11.00;5.75;;;;;;;21.29;100.00;95122.50;5054140;28;20043;-71
2022/06/26 07:18:57;;;;;;;10.38;4.80;;;;;;;21.36;100.00;95112.31;5064093;28;20033;-71
2022/06/26 07:21:24;;;;;;;10.00;4.85;;;;;;;21.48;100.00;95106.53;5057385;28;20139;-71
2022/06/26 07:23:51;;;;;;;10.25;4.40;;;;;;;21.63;100.00;95116.09;5043941;28;20033;-72
2022/06/26 07:26:35;;;;;;;8.68;4.50;;;;;;;21.76;100.00;95104.69;5045144;28;20040;-70
2022/06/26 07:29:02;;;;;;;5.43;4.13;;;;;;;21.89;100.00;95119.81;5034069;28;20042;-72
2022/06/26 07:31:39;;;;;;;10.25;3.15;;;;;;;22.05;98.55;95111.56;5048025;28;20055;-71
2022/06/26 07:34:13;;;;;;;13.73;3.65;;;;;;;22.06;98.76;95113.13;5046955;28;20044;-70
2022/06/26 07:36:41;;;;;;;4.90;3.27;;;;;;;22.28;99.34;95102.59;5048322;28;20158;-71
2022/06/26 07:39:10;;;;;;;7.32;3.35;;;;;;;22.37;97.45;95107.22;5055922;28;20052;-70
2022/06/26 07:41:37;;;;;;;7.20;2.80;;;;;;;22.28;96.13;95099.94;5054657;28;20028;-71
2022/06/26 07:44:06;;;;;;;4.10;2.33;;;;;;;22.31;93.79;95115.28;5054219;28;20039;-71
2022/06/26 07:46:37;;;;;;;7.22;3.55;;;;;;;22.42;96.27;95112.38;5048899;28;20609;-71
2022/06/26 07:49:07;;;;;;;6.13;3.22;;;;;;;22.40;97.60;95106.59;5044193;28;20578;-71
2022/06/26 07:51:35;;;;;;;13.50;3.88;;;;;;;22.44;96.04;95103.06;5037060;28;20044;-71
2022/06/26 07:54:03;;;;;;;5.70;3.17;;;;;;;22.21;95.22;95110.16;5059229;28;20123;-70
2022/06/26 07:56:30;;;;;;;5.25;3.22;;;;;;;22.46;96.41;95108.06;5056104;28;20059;-70
2022/06/26 07:58:57;;;;;;;5.45;2.90;;;;;;;22.69;92.61;95117.63;5049233;28;20506;-70
2022/06/26 08:01:24;;;;;;;6.22;3.38;;;;;;;22.92;94.24;95096.38;5054699;28;20129;-70
2022/06/26 08:03:51;;;;;;;6.90;3.33;;;;;;;23.06;93.27;95107.75;5071610;28;20122;-71
2022/06/26 08:06:19;;;;;;;6.85;3.67;;;;;;;23.35;95.41;95109.16;5066196;28;20067;-70
2022/06/26 08:08:46;;;;;;;7.80;4.30;;;;;;;23.43;94.04;95111.09;5074519;28;20039;-70
2022/06/26 08:11:14;;;;;;;3.80;2.90;;;;;;;23.43;91.77;95108.44;5070044;28;20123;-71
2022/06/26 08:13:41;;;;;;;3.67;2.97;;;;;;;23.69;88.77;95107.75;5068823;28;20166;-70
2022/06/26 08:16:08;;;;;;;9.30;4.07;;;;;;;23.52;82.80;95078.47;5070714;28;20044;-70
2022/06/26 08:18:35;;;;;;;5.40;3.20;;;;;;;23.73;81.90;95107.91;5059152;28;20120;-70
2022/06/26 08:22:00;;;;;;;8.88;3.50;;;;;;;23.99;83.05;95105.38;5053684;28;20040;-70
2022/06/26 08:23:49;;;;;;;6.63;3.10;;;;;;;24.31;81.38;95095.41;5063109;28;20044;-69
2022/06/26 08:26:17;;;;;;;4.25;3.22;;;;;;;24.70;79.61;95112.38;5051351;28;20046;-69
2022/06/26 08:28:44;;;;;;;5.18;3.00;;;;;;;24.82;79.02;95101.09;5067461;28;20535;-69
2022/06/26 08:31:11;;;;;;;6.32;2.60;;;;;;;24.54;72.94;95099.53;5064986;28;20132;-70
2022/06/26 08:33:38;;;;;;;5.32;2.15;;;;;;;24.76;74.03;95111.13;5058304;28;20037;-69
2022/06/26 08:36:05;;;;;;;7.90;3.70;;;;;;;24.87;74.89;95116.91;5062048;28;20040;-70
2022/06/26 08:38:32;;;;;;;5.85;3.47;;;;;;;24.70;77.34;95115.03;5064032;28;20741;-69
2022/06/26 08:40:59;;;;;;;4.38;2.60;;;;;;;24.46;75.26;95108.25;5043355;28;20325;-70
2022/06/26 08:43:27;;;;;;;13.00;2.75;;;;;;;24.74;70.67;95114.09;5062639;28;20040;-70
2022/06/26 08:46:04;;;;;;;13.48;3.78;;;;;;;24.80;74.04;95109.41;5062948;28;20045;-71
2022/06/26 08:48:40;;;;;;;4.95;2.10;;;;;;;24.65;71.09;95112.53;5048837;28;20033;-70
2022/06/26 08:51:09;;;;;;;4.07;2.10;;;;;;;24.53;73.33;95108.59;5056204;28;20048;-70
2022/06/26 08:53:36;;;;;;;3.80;2.15;;;;;;;24.72;74.35;95110.16;5052494;28;20033;-70
2022/06/26 08:56:04;;;;;;;4.22;2.40;;;;;;;24.93;74.77;95112.97;5049915;28;20743;-70
2022/06/26 08:58:31;;;;;;;5.25;2.47;;;;;;;24.92;74.42;95104.22;5052884;28;20041;-70
2022/06/26 09:00:58;;;;;;;8.95;2.97;;;;;;;25.06;72.55;95097.91;5075205;28;20040;-70
2022/06/26 09:03:25;;;;;;;4.40;2.78;;;;;;;25.31;72.86;95105.09;5049988;28;20051;-70
2022/06/26 09:05:51;;;;;;;5.47;2.58;;;;;;;25.15;72.59;95096.00;5072310;28;20047;-71
2022/06/26 09:08:20;;;;;;;6.65;3.15;;;;;;;25.53;71.63;95111.28;5050666;28;21785;-70
2022/06/26 09:10:49;;;;;;;5.78;3.10;;;;;;;25.73;68.70;95105.28;5046755;28;20430;-70
2022/06/26 09:13:16;;;;;;;3.63;2.70;;;;;;;25.61;67.99;95115.06;5043256;28;20440;-71
2022/06/26 09:15:44;;;;;;;5.20;2.20;;;;;;;25.52;66.17;95109.75;5061606;28;20606;-70
2022/06/26 09:18:12;;;;;;;4.10;2.22;;;;;;;25.70;66.76;95100.56;5043528;28;21485;-71
2022/06/26 09:20:55;;;;;;;3.00;2.13;;;;;;;25.85;65.35;95101.13;5079865;28;20082;-71
2022/06/26 09:23:22;;;;;;;6.60;2.85;;;;;;;26.08;66.05;95099.78;5071525;28;20040;-71
2022/06/26 09:25:56;;;;;;;8.27;3.05;;;;;;;26.06;63.42;95107.31;5072182;28;20870;-71
2022/06/26 09:28:23;;;;;;;4.00;2.28;;;;;;;26.06;64.09;95101.22;5066535;28;20041;-71
2022/06/26 09:30:57;;;;;;;4.70;2.92;;;;;;;26.21;64.29;95097.97;5069205;28;20051;-70
2022/06/26 09:33:24;;;;;;;;;;;;;;;26.52;61.53;95097.59;5064513;28;20094;-70
2022/06/26 09:35:52;;;;;;;4.95;3.00;;;;;;;26.52;58.85;95097.59;5066227;28;19928;-70
2022/06/26 09:38:21;;;;;;;6.80;3.67;;;;;;;27.01;61.55;95098.94;5061458;28;20730;-70
2022/06/26 09:40:57;;;;;;;4.90;2.20;;;;;;;27.21;57.91;95111.47;5069162;28;20068;-71
2022/06/26 09:43:33;;;;;;;3.58;2.28;;;;;;;26.98;58.74;95091.59;5069728;28;20044;-71
2022/06/26 09:46:03;;;;;;;5.25;2.50;;;;;;;26.74;58.63;95101.06;5071336;28;20044;-71
2022/06/26 09:48:30;;;;;;;4.88;2.45;;;;;;;26.64;59.05;95104.13;5054132;28;20045;-70
2022/06/26 09:50:58;;;;;;;11.15;3.08;;;;;;;26.40;59.91;95100.19;5075994;28;20040;-71
2022/06/26 09:53:27;;;;;;;42.60;22.02;;;;;;;26.32;60.59;95111.72;5069306;28;20036;-70
2022/06/26 09:55:56;;;;;;;38.42;23.63;;;;;;;26.45;60.44;95094.69;5074527;28;20032;-71
2022/06/26 09:58:25;;;;;;;7.38;2.63;;;;;;;26.82;59.36;95094.09;5070379;28;20726;-71
2022/06/26 10:06:28;;;;;;;4.45;2.20;;;;;;;27.09;56.93;95096.16;5075324;28;20756;-71
2022/06/26 10:09:03;;;;;;;4.03;2.80;;;;;;;27.24;58.23;95092.13;5073370;28;20037;-71
2022/06/26 10:11:32;;;;;;;55.88;24.92;;;;;;;27.17;58.23;95089.19;5069644;28;20102;-71
2022/06/26 10:14:16;;;;;;;80.28;36.60;;;;;;;27.05;56.49;95081.16;5072692;28;20561;-71
2022/06/26 10:17:04;;;;;;;21.50;9.35;;;;;;;26.89;59.55;95083.66;5061217;28;20056;-71
2022/06/26 10:19:44;;;;;;;9.32;2.90;;;;;;;26.55;57.78;95068.69;5058965;28;20107;-71
2022/06/26 10:22:13;;;;;;;8.93;4.82;;;;;;;26.79;60.19;95078.69;5036904;28;20040;-71
2022/06/26 10:25:05;;;;;;;8.55;4.13;;;;;;;26.70;61.75;95081.44;5057812;28;20052;-71
2022/06/26 10:27:34;;;;;;;6.75;4.18;;;;;;;26.73;62.97;95086.16;5052019;28;20634;-71
2022/06/26 10:30:17;;;;;;;14.77;8.20;;;;;;;26.65;62.89;95092.31;5060708;28;20028;-71
2022/06/26 10:32:45;;;;;;;12.07;6.55;;;;;;;26.60;63.04;95108.56;5073380;28;20660;-71
2022/06/26 10:35:13;;;;;;;6.75;2.90;;;;;;;26.41;65.46;95107.09;5059465;28;20051;-71
2022/06/26 10:37:49;;;;;;;12.50;2.95;;;;;;;26.35;66.70;95103.06;5062216;28;20044;-71
2022/06/26 10:43:13;;;;;;;4.38;2.80;;;;;;;26.86;64.18;95093.09;5056531;28;20040;-71
2022/06/26 10:45:41;;;;;;;8.07;3.22;;;;;;;27.09;61.09;95092.72;5055031;28;20068;-72
2022/06/26 10:48:24;;;;;;;5.95;2.60;;;;;;;27.27;60.80;95094.13;5057020;28;20039;-71
2022/06/26 10:51:01;;;;;;;12.07;8.70;;;;;;;27.57;59.72;95093.19;5077282;28;20046;-72
2022/06/26 10:53:28;;;;;;;3.83;2.10;;;;;;;27.52;59.31;95088.84;5053463;28;20052;-71
2022/06/26 10:55:58;;;;;;;3.10;2.78;;;;;;;27.55;57.10;95093.53;5078188;28;20097;-71
2022/06/26 10:58:27;;;;;;;8.45;2.58;;;;;;;27.97;55.42;95087.97;5054774;28;20048;-71
2022/06/26 11:01:00;;;;;;;4.70;2.03;;;;;;;28.30;53.88;95088.94;5056504;28;20040;-71
2022/06/26 11:03:28;;;;;;;6.00;2.47;;;;;;;28.38;52.99;95086.13;5072702;28;20051;-71
2022/06/26 11:06:09;;;;;;;5.90;1.77;;;;;;;28.50;50.42;95087.22;5042710;28;20036;-72
2022/06/26 11:08:42;;;;;;;3.50;2.22;;;;;;;29.29;51.95;95089.38;5051649;28;20055;-71
2022/06/26 11:11:20;;;;;;;7.18;3.90;;;;;;;29.78;49.21;95083.69;5056648;28;20046;-71
2022/06/26 11:14:00;;;;;;;6.20;3.00;;;;;;;29.74;45.74;95096.22;5068416;28;20048;-71
2022/06/26 11:16:38;;;;;;;6.72;1.67;;;;;;;30.60;45.50;95090.13;5063671;28;20073;-71
2022/06/26 11:19:07;;;;;;;8.38;4.80;;;;;;;31.06;42.95;95084.91;5056624;28;20095;-71
2022/06/26 11:21:34;;;;;;;4.78;2.60;;;;;;;31.65;40.94;95076.69;5069590;28;20040;-71
2022/06/26 11:24:02;;;;;;;2.97;1.90;;;;;;;31.91;39.73;95077.84;5049337;28;20052;-71
2022/06/26 11:26:30;;;;;;;9.73;2.28;;;;;;;31.34;38.34;95073.06;5062411;28;20048;-71
2022/06/26 11:29:00;;;;;;;7.05;1.73;;;;;;;31.58;39.21;95076.56;5062914;28;20045;-72
2022/06/26 11:31:30;;;;;;;4.80;1.90;;;;;;;32.44;40.81;95072.44;5037782;28;20702;-72
2022/06/26 11:34:24;;;;;;;2.60;1.70;;;;;;;33.34;39.72;95079.63;5062387;28;20064;-72
2022/06/26 11:36:55;;;;;;;4.40;2.00;;;;;;;33.81;39.39;95084.69;5064025;28;20047;-72
2022/06/26 11:39:37;;;;;;;4.32;1.67;;;;;;;34.65;38.73;95084.81;5062619;28;20749;-70
2022/06/26 11:42:22;;;;;;;2.80;1.52;;;;;;;34.61;37.08;95086.72;5074350;28;20040;-70
2022/06/26 11:44:51;;;;;;;2.03;1.40;;;;;;;34.13;35.40;95078.72;5046517;28;20134;-70